Time;durP1;ratioP1;P1;durP2;ratioP2;P2;SDS_P1;SDS_P2;PMS_P1;PMS_P2;Temp;Humidity;BMP_temperature;BMP_pressure;BME280_temperature;BME280_humidity;BME280_pressure;Samples;Min_cycle;Max_cycle;Signal;HPM_P1;HPM_P2
2022/07/19 00:01:38;;;;;;;6.32;4.22;;;;;;;19.43;85.07;101903.00;5023465;28;20040;-77
2022/07/19 00:04:03;;;;;;;6.50;4.10;;;;;;;19.38;85.64;101911.38;5023743;28;20499;-77
2022/07/19 00:06:29;;;;;;;7.30;4.07;;;;;;;19.35;85.77;101906.19;5023319;28;20411;-75
2022/07/19 00:08:55;;;;;;;6.82;4.35;;;;;;;19.33;85.90;101896.53;5023311;28;20118;-77
2022/07/19 00:11:20;;;;;;;5.65;4.22;;;;;;;19.30;86.57;101896.72;5022966;28;20125;-77
2022/07/19 00:13:46;;;;;;;8.68;4.20;;;;;;;19.25;86.67;101902.41;4990362;28;20352;-76
2022/07/19 00:16:12;;;;;;;4.78;3.95;;;;;;;19.24;86.57;101892.63;5023082;28;20052;-76
2022/07/19 00:18:37;;;;;;;6.35;4.32;;;;;;;19.21;87.20;101900.88;5023291;28;20042;-76
2022/07/19 00:21:03;;;;;;;6.15;4.00;;;;;;;19.17;87.33;101900.22;5022906;28;20470;-76
2022/07/19 00:23:29;;;;;;;5.05;4.03;;;;;;;19.17;87.74;101897.53;5023596;28;20037;-77
2022/07/19 00:25:54;;;;;;;5.10;3.97;;;;;;;19.14;87.42;101895.91;5004771;28;20500;-76
2022/07/19 00:28:20;;;;;;;7.40;4.15;;;;;;;19.12;87.35;101895.16;5022874;28;21097;-77
2022/07/19 00:30:46;;;;;;;5.75;4.10;;;;;;;19.09;87.45;101895.38;5023039;28;20039;-76
2022/07/19 00:33:11;;;;;;;4.70;3.85;;;;;;;19.05;87.41;101899.19;5022991;28;20107;-76
2022/07/19 00:35:37;;;;;;;6.05;4.15;;;;;;;19.02;87.64;101895.81;5022817;28;20029;-77
2022/07/19 00:38:08;;;;;;;6.45;3.95;;;;;;;18.99;88.04;101896.88;5003337;28;20396;-77
2022/07/19 00:40:38;;;;;;;5.88;3.92;;;;;;;18.98;88.30;101897.84;5022857;28;20477;-76
2022/07/19 00:43:04;;;;;;;4.50;3.67;;;;;;;18.97;88.42;101898.81;5022066;28;20025;-76
2022/07/19 00:45:30;;;;;;;5.60;4.22;;;;;;;18.96;88.88;101891.72;5022873;28;20293;-77
2022/07/19 00:47:55;;;;;;;4.53;3.80;;;;;;;18.94;89.08;101896.31;5004397;28;20138;-77
2022/07/19 00:50:21;;;;;;;9.43;4.20;;;;;;;18.92;88.97;101898.25;4990522;28;20488;-77
2022/07/19 00:52:52;;;;;;;6.47;4.25;;;;;;;18.89;89.17;101896.63;5022612;28;20457;-77
2022/07/19 00:55:19;;;;;;;6.55;4.13;;;;;;;18.89;89.69;101895.78;5022225;28;21389;-78
2022/07/19 00:57:46;;;;;;;6.07;4.20;;;;;;;18.86;89.55;101892.31;5022426;28;20037;-76
2022/07/19 01:00:13;;;;;;;6.80;4.68;;;;;;;18.83;89.92;101895.19;5022120;28;20033;-77
2022/07/19 01:02:38;;;;;;;5.10;4.28;;;;;;;18.81;89.57;101897.13;5004642;28;20048;-76
2022/07/19 01:05:08;;;;;;;6.45;4.63;;;;;;;18.80;89.60;101906.09;5022409;28;20067;-77
2022/07/19 01:07:37;;;;;;;6.25;4.30;;;;;;;18.80;89.73;101900.75;5022281;28;20103;-76
2022/07/19 01:10:05;;;;;;;6.63;4.50;;;;;;;18.80;89.64;101898.06;5022334;28;20030;-76
2022/07/19 01:12:32;;;;;;;6.50;4.18;;;;;;;18.82;89.49;101892.59;5006107;28;20057;-76
2022/07/19 01:14:58;;;;;;;5.65;4.15;;;;;;;18.80;89.64;101892.69;4990641;28;20248;-76
2022/07/19 01:17:23;;;;;;;5.72;4.10;;;;;;;18.78;89.57;101894.63;5004311;28;20040;-76
2022/07/19 01:19:49;;;;;;;5.97;4.20;;;;;;;18.76;89.71;101887.63;5022079;28;21378;-76
2022/07/19 01:22:15;;;;;;;5.47;4.18;;;;;;;18.73;89.16;101894.03;5022189;28;20048;-76
2022/07/19 01:24:40;;;;;;;6.53;4.28;;;;;;;18.69;89.03;101898.75;5022203;28;20652;-76
2022/07/19 01:27:07;;;;;;;7.82;4.20;;;;;;;18.65;89.13;101899.91;5021936;28;20118;-76
2022/07/19 01:29:36;;;;;;;6.70;4.40;;;;;;;18.60;89.17;101888.59;5021929;28;20107;-76
2022/07/19 01:32:05;;;;;;;7.13;4.22;;;;;;;18.57;89.30;101895.03;5021857;28;20048;-76
2022/07/19 01:34:33;;;;;;;5.78;4.45;;;;;;;18.53;89.59;101893.47;5021820;28;20391;-77
2022/07/19 01:36:58;;;;;;;5.80;3.95;;;;;;;18.52;89.79;101890.91;5021785;28;20025;-77
2022/07/19 01:39:24;;;;;;;6.40;4.50;;;;;;;18.50;89.71;101898.19;5021624;28;20107;-76
2022/07/19 01:41:49;;;;;;;5.78;3.92;;;;;;;18.48;89.32;101895.63;5003636;28;20051;-76
2022/07/19 01:44:15;;;;;;;7.13;4.03;;;;;;;18.47;89.56;101901.94;5021508;28;20095;-76
2022/07/19 01:46:41;;;;;;;9.68;4.05;;;;;;;18.45;89.36;101906.50;5021466;28;20033;-77
2022/07/19 01:49:07;;;;;;;6.53;4.03;;;;;;;18.43;89.02;101895.03;4989790;28;20037;-76
2022/07/19 01:51:32;;;;;;;5.35;4.07;;;;;;;18.43;89.39;101900.41;5021198;28;20672;-76
2022/07/19 01:53:58;;;;;;;5.70;4.28;;;;;;;18.42;89.12;101899.53;4986553;28;20057;-77
2022/07/19 01:56:24;;;;;;;5.88;4.38;;;;;;;18.43;89.19;101887.00;5021134;28;20111;-76
2022/07/19 01:58:49;;;;;;;6.20;4.50;;;;;;;18.43;88.72;101892.34;5021091;28;20038;-76
2022/07/19 02:01:15;;;;;;;5.38;3.97;;;;;;;18.43;88.84;101890.50;4998003;28;20109;-76
2022/07/19 02:03:40;;;;;;;8.30;4.60;;;;;;;18.43;88.58;101885.16;5003255;28;20030;-77
2022/07/19 02:06:06;;;;;;;4.20;3.72;;;;;;;18.44;88.39;101880.66;5020748;28;20021;-77
2022/07/19 02:08:31;;;;;;;7.45;4.13;;;;;;;18.45;88.36;101879.72;5019337;28;20477;-77
2022/07/19 02:10:59;;;;;;;7.28;4.32;;;;;;;18.47;88.48;101880.50;5020117;28;20407;-76
2022/07/19 02:13:25;;;;;;;6.68;4.28;;;;;;;18.48;88.61;101879.53;5020662;28;20026;-76
2022/07/19 02:15:50;;;;;;;7.20;4.05;;;;;;;18.49;88.59;101875.88;5020728;28;20674;-76
2022/07/19 02:18:16;;;;;;;6.20;4.35;;;;;;;18.48;88.25;101881.34;5002978;28;20077;-76
2022/07/19 02:20:42;;;;;;;8.63;4.10;;;;;;;18.45;88.03;101871.66;5020243;28;20556;-76
2022/07/19 02:23:07;;;;;;;6.43;4.50;;;;;;;18.43;87.77;101869.06;4988605;28;20029;-76
2022/07/19 02:25:32;;;;;;;5.32;4.22;;;;;;;18.41;87.56;101872.84;4972361;28;20029;-77
2022/07/19 02:27:58;;;;;;;6.85;3.97;;;;;;;18.39;87.34;101864.88;5020651;28;20049;-76
2022/07/19 02:30:23;;;;;;;5.90;3.90;;;;;;;18.39;87.42;101864.00;4972250;28;20029;-77
2022/07/19 02:32:49;;;;;;;5.53;4.15;;;;;;;18.39;87.35;101869.38;5021142;28;20205;-76
2022/07/19 02:35:14;;;;;;;5.38;4.45;;;;;;;18.36;87.15;101867.72;4972066;28;20037;-77
2022/07/19 02:37:40;;;;;;;8.75;4.35;;;;;;;18.32;87.38;101874.25;5019256;28;20021;-76
2022/07/19 02:40:07;;;;;;;8.20;4.43;;;;;;;18.30;87.55;101869.00;5020772;28;20059;-76
2022/07/19 02:42:33;;;;;;;6.88;4.28;;;;;;;18.26;87.28;101867.44;5020362;28;20059;-77
2022/07/19 02:44:58;;;;;;;5.50;4.28;;;;;;;18.21;87.29;101864.22;5020288;28;20654;-77
2022/07/19 02:47:24;;;;;;;7.75;4.53;;;;;;;18.18;87.47;101864.38;5020325;28;20049;-77
2022/07/19 02:49:50;;;;;;;6.18;4.38;;;;;;;18.14;87.86;101862.88;5020791;28;20044;-77
2022/07/19 02:52:15;;;;;;;7.88;4.40;;;;;;;18.11;88.04;101863.03;5020794;28;20091;-77
2022/07/19 02:54:41;;;;;;;4.57;3.97;;;;;;;18.07;88.02;101856.16;5018898;28;20041;-77
2022/07/19 02:57:07;;;;;;;7.72;4.30;;;;;;;18.04;88.50;101852.66;5020776;28;20029;-77
2022/07/19 02:59:32;;;;;;;9.95;4.95;;;;;;;18.01;88.53;101855.53;5020761;28;20020;-77
2022/07/19 03:01:58;;;;;;;6.30;4.28;;;;;;;17.98;88.48;101853.03;5001543;28;20029;-77
2022/07/19 03:04:23;;;;;;;5.35;4.43;;;;;;;17.96;88.66;101856.75;5020138;28;20519;-77
2022/07/19 03:06:49;;;;;;;6.68;4.90;;;;;;;17.92;88.96;101848.94;5020291;28;20530;-77
2022/07/19 03:09:14;;;;;;;8.18;4.72;;;;;;;17.91;89.10;101846.34;5003207;28;20029;-77
2022/07/19 03:11:40;;;;;;;6.13;4.47;;;;;;;17.91;89.25;101854.38;5020415;28;20451;-77
2022/07/19 03:14:05;;;;;;;5.93;4.47;;;;;;;17.89;89.43;101845.56;5020669;28;20038;-77
2022/07/19 03:16:31;;;;;;;7.38;4.80;;;;;;;17.87;89.65;101847.50;5020544;28;20030;-77
2022/07/19 03:18:57;;;;;;;7.20;5.05;;;;;;;17.85;89.90;101852.94;4988125;28;20033;-77
2022/07/19 03:21:23;;;;;;;6.63;5.22;;;;;;;17.83;90.16;101843.25;5020164;28;20029;-77
2022/07/19 03:23:49;;;;;;;8.77;4.70;;;;;;;17.82;90.59;101854.94;5023713;28;20162;-77
2022/07/19 03:26:14;;;;;;;6.65;4.88;;;;;;;17.80;90.81;101851.50;5024082;28;20642;-77
2022/07/19 03:28:40;;;;;;;6.65;5.38;;;;;;;17.77;90.54;101857.91;5006333;28;20095;-77
2022/07/19 03:31:05;;;;;;;6.90;4.82;;;;;;;17.76;90.55;101846.31;5024393;28;20510;-77
2022/07/19 03:33:31;;;;;;;7.03;4.90;;;;;;;17.76;90.86;101865.06;5008095;28;20029;-77
2022/07/19 03:35:57;;;;;;;8.00;5.05;;;;;;;17.76;91.07;101862.38;5024387;28;20021;-77
2022/07/19 03:38:23;;;;;;;6.50;4.78;;;;;;;17.75;90.78;101866.00;5023540;28;20037;-77
2022/07/19 03:40:48;;;;;;;7.20;5.07;;;;;;;17.74;90.68;101863.41;5005898;28;20116;-75
2022/07/19 03:43:17;;;;;;;7.03;4.97;;;;;;;17.73;90.78;101859.03;5023705;28;20119;-75
2022/07/19 03:45:43;;;;;;;7.38;5.10;;;;;;;17.76;90.62;101862.38;5024053;28;20465;-75
2022/07/19 03:48:09;;;;;;;6.15;4.57;;;;;;;17.76;90.21;101859.69;4991713;28;20037;-78
2022/07/19 03:50:34;;;;;;;7.25;4.68;;;;;;;17.72;89.73;101855.50;5023826;28;20060;-76
2022/07/19 03:53:00;;;;;;;5.30;4.43;;;;;;;17.70;90.00;101853.88;5022990;28;20063;-75
2022/07/19 03:55:26;;;;;;;7.47;5.22;;;;;;;17.71;90.25;101858.25;5005338;28;20053;-76
2022/07/19 03:57:51;;;;;;;6.63;4.68;;;;;;;17.71;90.00;101858.25;4991035;28;20034;-76
2022/07/19 04:00:16;;;;;;;7.38;4.82;;;;;;;17.71;89.76;101861.78;5023448;28;20040;-77
2022/07/19 04:02:42;;;;;;;7.38;4.97;;;;;;;17.71;89.44;101861.78;4959272;28;20459;-76
2022/07/19 04:05:08;;;;;;;8.27;5.30;;;;;;;17.74;89.28;101853.59;5007366;28;20492;-75
2022/07/19 04:07:36;;;;;;;7.38;5.00;;;;;;;17.76;89.17;101854.34;5005453;28;20033;-77
2022/07/19 04:10:03;;;;;;;7.00;4.53;;;;;;;17.79;88.60;101855.97;5023728;28;20037;-77
2022/07/19 04:12:29;;;;;;;6.18;4.50;;;;;;;17.82;88.10;101849.59;5022665;28;20041;-77
2022/07/19 04:14:55;;;;;;;6.85;4.72;;;;;;;17.84;88.22;101853.91;5023378;28;20034;-77
2022/07/19 04:17:21;;;;;;;6.45;4.78;;;;;;;17.86;87.98;101851.13;5023246;28;20075;-77
2022/07/19 04:19:46;;;;;;;7.13;4.95;;;;;;;17.89;87.49;101850.94;5006993;28;20029;-77
2022/07/19 04:22:12;;;;;;;7.40;4.53;;;;;;;17.89;87.01;101853.59;4990686;28;20506;-78
2022/07/19 04:24:37;;;;;;;6.60;4.65;;;;;;;17.92;86.87;101858.75;4990857;28;20041;-75
2022/07/19 04:27:03;;;;;;;8.05;4.85;;;;;;;17.95;86.59;101853.25;5022548;28;20060;-77
2022/07/19 04:29:29;;;;;;;7.80;4.90;;;;;;;17.97;86.39;101856.69;5022917;28;20361;-77
2022/07/19 04:31:54;;;;;;;6.95;4.82;;;;;;;17.95;85.98;101853.25;5022952;28;20037;-76
2022/07/19 04:34:20;;;;;;;6.82;4.47;;;;;;;17.99;85.65;101854.78;4989322;28;20318;-77
2022/07/19 04:36:45;;;;;;;5.75;4.70;;;;;;;17.99;85.39;101852.09;4990812;28;20528;-76
2022/07/19 04:39:11;;;;;;;7.35;4.93;;;;;;;18.00;85.43;101855.63;5022773;28;20132;-76
2022/07/19 04:41:36;;;;;;;6.05;4.32;;;;;;;17.99;85.33;101849.44;5022775;28;20044;-76
2022/07/19 04:44:02;;;;;;;7.97;4.70;;;;;;;17.99;85.47;101852.09;5005018;28;20065;-78
2022/07/19 04:46:28;;;;;;;8.80;4.95;;;;;;;18.00;85.11;101853.81;5022697;28;21444;-77
2022/07/19 04:48:53;;;;;;;6.63;4.78;;;;;;;18.01;84.98;101860.03;5022475;28;20116;-75
2022/07/19 04:51:19;;;;;;;7.30;4.43;;;;;;;18.02;84.60;101856.38;5022636;28;20064;-76
2022/07/19 04:53:44;;;;;;;5.97;4.45;;;;;;;18.03;84.34;101858.13;5022064;28;21542;-74
2022/07/19 04:56:10;;;;;;;6.70;4.95;;;;;;;18.05;84.29;101857.09;5022339;28;20424;-76
2022/07/19 04:58:38;;;;;;;8.43;4.90;;;;;;;18.08;83.80;101853.38;5022236;28;20045;-75
2022/07/19 05:01:03;;;;;;;5.40;4.25;;;;;;;18.10;83.30;101862.19;5004389;28;20047;-77
2022/07/19 05:03:29;;;;;;;6.72;4.70;;;;;;;18.12;82.99;101857.59;4989824;28;20790;-77
2022/07/19 05:05:55;;;;;;;7.65;4.80;;;;;;;18.15;82.87;101851.19;5006801;28;20041;-77
2022/07/19 05:08:20;;;;;;;6.70;4.63;;;;;;;18.19;82.60;101850.91;5021771;28;20037;-77
2022/07/19 05:10:46;;;;;;;6.32;4.47;;;;;;;18.23;82.51;101854.25;5021977;28;20107;-77
2022/07/19 05:13:11;;;;;;;7.57;4.70;;;;;;;18.28;82.24;101848.59;5021993;28;20083;-76
2022/07/19 05:15:37;;;;;;;6.75;4.50;;;;;;;18.34;82.49;101855.41;5004303;28;20037;-77
2022/07/19 05:18:02;;;;;;;6.35;4.40;;;;;;;18.39;82.23;101850.59;5003987;28;20123;-76
2022/07/19 05:20:28;;;;;;;8.60;5.15;;;;;;;18.46;82.62;101851.94;5022106;28;20044;-77
2022/07/19 05:22:56;;;;;;;6.38;4.30;;;;;;;18.51;81.79;101839.09;5021777;28;20043;-76
2022/07/19 05:25:21;;;;;;;6.40;4.80;;;;;;;18.58;81.40;101836.91;5021519;28;20543;-74
2022/07/19 05:27:47;;;;;;;4.47;4.00;;;;;;;18.64;81.23;101843.69;5022101;28;20045;-75
2022/07/19 05:30:13;;;;;;;7.13;4.43;;;;;;;18.69;81.19;101845.09;5003842;28;20041;-75
2022/07/19 05:32:38;;;;;;;6.75;4.65;;;;;;;18.77;80.92;101851.78;5003470;28;20095;-77
2022/07/19 05:35:04;;;;;;;6.45;4.70;;;;;;;18.82;80.61;101850.56;4989876;28;20067;-78
2022/07/19 05:37:30;;;;;;;9.20;4.60;;;;;;;18.89;80.78;101855.53;4972460;28;20270;-75
2022/07/19 05:39:55;;;;;;;5.15;4.40;;;;;;;18.96;80.77;101854.16;5021313;28;20033;-76
2022/07/19 05:42:21;;;;;;;6.97;4.47;;;;;;;19.02;80.64;101851.13;5021350;28;20443;-75
2022/07/19 05:44:46;;;;;;;6.72;4.78;;;;;;;19.11;81.43;101847.81;5021188;28;20035;-77
2022/07/19 05:47:12;;;;;;;6.03;4.32;;;;;;;19.20;81.31;101853.53;5003538;28;20044;-77
2022/07/19 05:49:37;;;;;;;5.35;4.40;;;;;;;19.27;80.96;101850.34;5021338;28;20056;-76
2022/07/19 05:52:03;;;;;;;7.32;4.47;;;;;;;19.37;80.91;101855.09;5019043;28;20483;-77
2022/07/19 05:54:29;;;;;;;6.35;4.60;;;;;;;19.49;80.89;101859.63;4981292;28;20448;-77
2022/07/19 05:56:55;;;;;;;7.30;4.60;;;;;;;19.60;80.45;101858.06;4972749;28;20041;-76
2022/07/19 05:59:22;;;;;;;7.47;4.80;;;;;;;19.70;80.21;101856.47;5021062;28;20067;-76
2022/07/19 06:01:50;;;;;;;8.05;4.13;;;;;;;19.83;79.77;101874.41;4989976;28;20057;-76
2022/07/19 06:04:16;;;;;;;5.45;4.10;;;;;;;19.97;79.37;101865.41;4989687;28;20091;-76
2022/07/19 06:06:41;;;;;;;5.07;3.88;;;;;;;20.10;78.76;101866.28;5021309;28;20033;-76
2022/07/19 06:09:11;;;;;;;5.93;4.22;;;;;;;20.25;78.37;101866.19;5001612;28;20040;-76
2022/07/19 06:11:40;;;;;;;5.78;4.30;;;;;;;20.39;78.30;101858.00;4987549;28;20037;-75
2022/07/19 06:14:08;;;;;;;5.20;4.20;;;;;;;20.54;77.97;101860.56;5020810;28;20033;-76
2022/07/19 06:16:34;;;;;;;5.57;4.28;;;;;;;20.70;77.99;101855.78;5021058;28;20029;-76
2022/07/19 06:19:00;;;;;;;7.55;4.85;;;;;;;20.86;78.24;101854.72;5020898;28;20048;-75
2022/07/19 06:21:25;;;;;;;6.28;4.95;;;;;;;21.03;78.71;101856.16;5003241;28;20520;-75
2022/07/19 06:23:51;;;;;;;6.30;4.60;;;;;;;21.22;78.46;101855.63;5021204;28;20087;-75
2022/07/19 06:26:16;;;;;;;6.88;4.20;;;;;;;21.41;77.71;101854.25;5020887;28;20041;-76
2022/07/19 06:28:42;;;;;;;7.07;4.65;;;;;;;21.56;76.59;101852.19;5020553;28;20052;-75
2022/07/19 06:31:12;;;;;;;6.05;4.15;;;;;;;21.66;75.92;101846.94;4989325;28;20539;-76
2022/07/19 06:33:39;;;;;;;6.35;4.30;;;;;;;21.79;75.68;101847.75;4986878;28;20030;-76
2022/07/19 06:36:06;;;;;;;7.13;4.60;;;;;;;21.93;75.43;101844.00;4986458;28;20033;-76
2022/07/19 06:38:31;;;;;;;5.07;3.78;;;;;;;22.09;74.83;101848.16;5020877;28;20036;-76
2022/07/19 06:40:57;;;;;;;5.57;4.10;;;;;;;22.27;74.74;101850.41;4988509;28;20037;-76
2022/07/19 06:43:22;;;;;;;5.63;3.95;;;;;;;22.43;73.85;101850.03;4988347;28;20168;-76
2022/07/19 06:45:48;;;;;;;7.68;4.78;;;;;;;22.55;73.63;101854.44;5020477;28;20130;-76
2022/07/19 06:48:13;;;;;;;5.20;4.15;;;;;;;22.71;73.20;101845.97;5003801;28;20213;-76
2022/07/19 06:50:39;;;;;;;5.35;3.97;;;;;;;22.87;72.71;101842.84;5002740;28;20041;-77
2022/07/19 06:53:05;;;;;;;5.95;3.90;;;;;;;23.05;72.24;101847.72;4989588;28;20116;-76
2022/07/19 06:55:30;;;;;;;5.05;3.92;;;;;;;23.22;72.08;101845.44;5019923;28;20071;-77
2022/07/19 06:57:56;;;;;;;5.30;4.22;;;;;;;23.35;71.63;101845.31;5022881;28;20040;-76
2022/07/19 07:00:21;;;;;;;5.43;4.13;;;;;;;23.48;71.38;101840.59;5006598;28;20037;-77
2022/07/19 07:02:54;;;;;;;5.15;3.78;;;;;;;23.62;71.12;101830.44;4992533;28;20029;-76
2022/07/19 07:05:19;;;;;;;6.32;3.83;;;;;;;23.76;71.02;101838.22;5006930;28;20086;-77
2022/07/19 07:07:44;;;;;;;5.07;3.90;;;;;;;23.88;70.95;101833.56;5024520;28;20033;-77
2022/07/19 07:10:10;;;;;;;6.45;4.10;;;;;;;24.06;70.41;101838.34;5024161;28;20060;-77
2022/07/19 07:12:36;;;;;;;5.88;4.15;;;;;;;24.20;70.78;101835.34;5024439;28;20033;-76
2022/07/19 07:15:03;;;;;;;5.32;3.80;;;;;;;24.41;70.58;101837.97;5024238;28;20243;-77
2022/07/19 07:17:28;;;;;;;7.50;4.40;;;;;;;24.54;70.02;101837.75;5024018;28;20491;-77
2022/07/19 07:19:56;;;;;;;5.80;4.07;;;;;;;24.66;70.20;101824.06;5024153;28;20049;-77
2022/07/19 07:22:22;;;;;;;4.78;3.42;;;;;;;24.85;69.76;101819.72;5005081;28;20044;-77
2022/07/19 07:24:48;;;;;;;5.05;3.65;;;;;;;24.97;69.06;101821.31;5023026;28;20081;-76
2022/07/19 07:27:13;;;;;;;5.03;3.38;;;;;;;25.04;68.53;101822.44;5023719;28;20491;-77
2022/07/19 07:29:39;;;;;;;4.03;3.13;;;;;;;25.21;68.55;101828.13;5024083;28;20499;-76
2022/07/19 07:32:05;;;;;;;4.88;3.50;;;;;;;25.38;68.62;101823.00;5004838;28;20041;-77
2022/07/19 07:34:31;;;;;;;5.32;3.25;;;;;;;25.59;68.82;101831.84;4992103;28;20041;-76
2022/07/19 07:36:56;;;;;;;5.03;3.22;;;;;;;25.75;67.95;101825.84;5004497;28;20033;-77
2022/07/19 07:39:23;;;;;;;3.92;2.88;;;;;;;25.85;67.63;101820.38;5005914;28;20024;-76
2022/07/19 07:41:48;;;;;;;4.05;3.05;;;;;;;26.02;67.46;101831.44;5005730;28;20551;-77
2022/07/19 07:44:14;;;;;;;5.40;3.22;;;;;;;26.16;67.29;101828.25;5023680;28;20277;-78
2022/07/19 07:46:40;;;;;;;5.43;3.20;;;;;;;26.31;67.04;101819.66;4990631;28;20471;-77
2022/07/19 07:49:08;;;;;;;3.67;2.95;;;;;;;26.45;66.29;101818.28;4991712;28;20048;-77
2022/07/19 07:51:34;;;;;;;4.05;2.97;;;;;;;26.62;65.99;101815.78;5006095;28;20471;-77
2022/07/19 07:54:01;;;;;;;4.10;2.92;;;;;;;26.78;66.21;101815.06;5002190;28;20050;-76
2022/07/19 07:56:27;;;;;;;3.80;2.70;;;;;;;26.89;65.63;101812.16;5001569;28;20506;-76
2022/07/19 07:58:52;;;;;;;3.55;2.65;;;;;;;27.00;64.93;101802.09;5003056;28;21412;-77
2022/07/19 08:01:18;;;;;;;4.13;2.50;;;;;;;27.15;64.26;101799.66;5003793;28;20044;-76
2022/07/19 08:03:43;;;;;;;4.28;2.80;;;;;;;27.34;64.33;101809.53;5001953;28;20040;-78
2022/07/19 08:06:10;;;;;;;3.97;2.30;;;;;;;27.57;63.67;101803.59;5003611;28;20661;-77
2022/07/19 08:08:37;;;;;;;4.78;2.75;;;;;;;27.75;62.91;101798.97;5003423;28;20030;-76
2022/07/19 08:11:03;;;;;;;3.47;2.20;;;;;;;27.92;63.01;101799.03;5003234;28;20072;-76
2022/07/19 08:13:29;;;;;;;2.30;2.10;;;;;;;28.06;62.12;101803.88;4959284;28;20042;-77
2022/07/19 08:15:54;;;;;;;2.53;2.13;;;;;;;28.22;61.79;101799.56;4985600;28;20056;-76
2022/07/19 08:18:20;;;;;;;2.78;1.88;;;;;;;28.40;61.46;101796.72;4988078;28;20041;-77
2022/07/19 08:20:46;;;;;;;2.95;2.30;;;;;;;28.56;60.88;101792.34;5003585;28;20034;-76
2022/07/19 08:23:11;;;;;;;2.30;1.98;;;;;;;28.72;61.26;101791.53;5001792;28;20701;-76
2022/07/19 08:25:37;;;;;;;3.03;1.88;;;;;;;28.87;60.62;101789.84;5002065;28;20061;-76
2022/07/19 08:28:04;;;;;;;2.42;1.90;;;;;;;29.02;59.49;101791.91;5002840;28;20584;-76
2022/07/19 08:30:31;;;;;;;2.30;1.90;;;;;;;29.09;58.60;101792.94;4984149;28;22233;-76
2022/07/19 08:32:56;;;;;;;2.85;2.03;;;;;;;29.17;57.99;101783.03;5001682;28;20029;-76
2022/07/19 08:35:22;;;;;;;2.38;1.92;;;;;;;29.27;57.87;101779.16;4984183;28;20090;-78
2022/07/19 08:37:47;;;;;;;1.75;1.60;;;;;;;29.39;58.23;101782.38;5002785;28;20041;-76
2022/07/19 08:40:13;;;;;;;1.70;1.60;;;;;;;29.51;57.88;101780.16;5001599;28;20032;-76
2022/07/19 08:42:39;;;;;;;2.65;1.80;;;;;;;29.64;57.10;101776.88;5003115;28;20034;-76
2022/07/19 08:45:07;;;;;;;2.28;1.60;;;;;;;29.76;56.29;101780.09;5001591;28;20128;-76
2022/07/19 08:47:33;;;;;;;2.88;1.77;;;;;;;29.88;55.66;101780.56;5002471;28;20044;-77
2022/07/19 08:49:59;;;;;;;1.60;1.50;;;;;;;29.93;55.16;101777.31;5001459;28;20042;-77
2022/07/19 08:52:25;;;;;;;2.65;1.65;;;;;;;30.08;55.30;101774.72;5002790;28;20038;-76
2022/07/19 08:54:51;;;;;;;1.77;1.67;;;;;;;30.21;54.56;101775.00;5015683;28;20061;-77
2022/07/19 09:00:01;;;;;;;1.70;1.40;;;;;;;30.41;54.12;101780.03;4995799;28;20045;-76
2022/07/19 09:02:29;;;;;;;3.53;1.50;;;;;;;30.48;54.10;101775.53;5022242;28;20439;-78
2022/07/19 09:05:09;;;;;;;1.98;1.73;;;;;;;30.62;53.08;101776.63;5022237;28;20103;-77
2022/07/19 09:07:38;;;;;;;1.95;1.58;;;;;;;30.65;53.88;101775.41;5003794;28;20044;-77
2022/07/19 09:10:18;;;;;;;1.88;1.40;;;;;;;30.70;50.95;101772.16;5004131;28;20700;-77
2022/07/19 09:13:20;;;;;;;1.52;1.30;;;;;;;30.82;50.64;101773.44;5004359;28;20044;-77
2022/07/19 09:15:54;;;;;;;1.90;1.45;;;;;;;30.97;51.25;101778.09;5022385;28;20036;-78
2022/07/19 09:18:22;;;;;;;1.45;1.27;;;;;;;31.10;52.72;101775.59;5003406;28;20130;-78
2022/07/19 09:20:53;;;;;;;1.83;1.50;;;;;;;31.22;53.13;101776.03;5021138;28;20037;-77
2022/07/19 09:23:19;;;;;;;2.35;1.45;;;;;;;31.34;53.05;101772.84;5021247;28;20033;-78
2022/07/19 09:25:53;;;;;;;2.90;1.10;;;;;;;31.46;50.83;101765.91;4989867;28;20465;-77
2022/07/19 09:28:20;;;;;;;1.55;1.40;;;;;;;31.52;50.95;101765.16;5021803;28;20044;-77
2022/07/19 09:30:51;;;;;;;1.75;1.20;;;;;;;31.58;49.25;101771.75;4989224;28;20036;-78
2022/07/19 09:33:35;;;;;;;2.50;1.30;;;;;;;31.70;45.36;101772.16;5021906;28;20041;-78
2022/07/19 09:36:03;;;;;;;1.90;1.50;;;;;;;31.81;47.92;101774.38;5021917;28;20029;-78
2022/07/19 09:38:35;;;;;;;1.48;1.38;;;;;;;31.79;45.58;101770.13;5021562;28;20072;-79
2022/07/19 09:41:08;;;;;;;1.38;1.27;;;;;;;31.82;44.84;101764.31;5022096;28;20743;-77
2022/07/19 09:43:58;;;;;;;2.25;1.30;;;;;;;31.91;44.27;101767.81;5021705;28;20048;-78
2022/07/19 09:46:35;;;;;;;2.50;1.38;;;;;;;32.04;44.15;101756.19;4989285;28;20061;-79
2022/07/19 09:49:08;;;;;;;1.40;1.30;;;;;;;32.14;43.81;101764.09;5005383;28;20619;-78
2022/07/19 09:51:36;;;;;;;2.15;1.33;;;;;;;32.17;44.44;101760.97;5021484;28;20471;-79
2022/07/19 09:54:03;;;;;;;2.58;1.30;;;;;;;32.25;44.50;101774.56;5003109;28;20432;-79
2022/07/19 09:56:29;;;;;;;1.45;1.33;;;;;;;32.27;43.88;101767.00;5021672;28;20172;-78
2022/07/19 09:58:56;;;;;;;1.45;1.20;;;;;;;32.27;43.92;101758.78;5020961;28;20496;-77
2022/07/19 10:01:22;;;;;;;2.00;1.38;;;;;;;32.27;43.50;101761.53;5021811;28;20139;-77
2022/07/19 10:03:48;;;;;;;1.75;1.40;;;;;;;32.29;43.74;101753.13;5003281;28;20041;-78
2022/07/19 10:06:13;;;;;;;1.42;1.20;;;;;;;32.33;43.42;101755.28;5002749;28;20032;-80
2022/07/19 10:08:39;;;;;;;2.00;1.33;;;;;;;32.34;42.28;101751.47;5002964;28;20029;-78
2022/07/19 10:11:05;;;;;;;1.45;1.20;;;;;;;32.43;42.36;101749.50;5003173;28;20480;-78
2022/07/19 10:13:31;;;;;;;1.42;1.33;;;;;;;32.47;41.66;101748.06;5020697;28;20041;-79
2022/07/19 10:15:57;;;;;;;1.40;1.20;;;;;;;32.55;41.91;101747.09;5021035;28;20666;-78
2022/07/19 10:18:27;;;;;;;1.67;1.15;;;;;;;32.64;41.07;101743.16;4985567;28;20467;-78
2022/07/19 10:20:53;;;;;;;1.50;1.35;;;;;;;32.65;41.42;101742.16;5021277;28;20102;-78
2022/07/19 10:23:27;;;;;;;2.47;1.30;;;;;;;32.64;40.29;101740.44;5020563;28;20104;-78
2022/07/19 10:25:52;;;;;;;1.23;1.13;;;;;;;32.61;41.20;101729.88;5004592;28;20461;-78
2022/07/19 10:28:44;;;;;;;1.60;1.02;;;;;;;32.63;39.07;101730.53;5020424;28;20041;-78
2022/07/19 10:31:36;;;;;;;1.42;1.10;;;;;;;32.60;38.54;101719.97;4996023;28;20040;-79
2022/07/19 10:34:07;;;;;;;1.38;1.17;;;;;;;32.62;39.78;101719.78;5016903;28;20050;-79
2022/07/19 10:36:36;;;;;;;1.70;1.17;;;;;;;32.62;39.49;101723.34;5018834;28;20657;-78
2022/07/19 10:39:22;;;;;;;1.50;1.17;;;;;;;32.55;37.91;101719.69;5021152;28;20052;-78
2022/07/19 10:42:04;;;;;;;1.20;1.10;;;;;;;32.52;37.26;101720.09;5020598;28;20720;-78
2022/07/19 10:44:29;;;;;;;1.20;1.10;;;;;;;32.56;39.49;101720.56;5004446;28;20116;-79
2022/07/19 10:46:55;;;;;;;1.23;1.13;;;;;;;32.56;38.99;101715.91;4987863;28;20114;-78
2022/07/19 10:49:46;;;;;;;1.02;1.00;;;;;;;32.56;37.53;101715.91;5018517;28;20029;-80
2022/07/19 10:52:27;;;;;;;1.35;1.00;;;;;;;32.61;36.89;101713.44;5020268;28;20043;-78
2022/07/19 10:55:18;;;;;;;1.30;1.20;;;;;;;32.64;36.43;101710.28;5000986;28;20038;-79
2022/07/19 10:57:45;;;;;;;2.38;1.20;;;;;;;32.67;38.20;101709.06;5020419;28;20029;-79
2022/07/19 11:00:23;;;;;;;1.30;1.20;;;;;;;32.75;36.70;101708.06;5020641;28;20510;-81
2022/07/19 11:02:50;;;;;;;1.42;0.98;;;;;;;32.78;37.56;101702.19;4988527;28;20072;-79
2022/07/19 11:05:27;;;;;;;1.40;1.30;;;;;;;32.82;36.74;101706.25;5018797;28;20037;-79
2022/07/19 11:07:57;;;;;;;1.88;1.33;;;;;;;32.88;37.17;101704.59;5020157;28;20063;-79
2022/07/19 11:10:28;;;;;;;1.13;1.02;;;;;;;32.94;37.57;101698.31;5020342;28;20084;-79
2022/07/19 11:12:55;;;;;;;2.10;1.30;;;;;;;32.93;37.29;101696.63;5001657;28;20029;-79
2022/07/19 11:15:21;;;;;;;0.88;0.88;;;;;;;32.95;37.95;101690.97;5020193;28;21048;-78
2022/07/19 11:18:06;;;;;;;1.52;1.20;;;;;;;33.01;36.78;101685.53;5020207;28;20195;-78
2022/07/19 11:20:34;;;;;;;2.15;1.17;;;;;;;33.08;36.86;101691.06;5019830;28;20030;-77
2022/07/19 11:23:03;;;;;;;1.38;1.27;;;;;;;33.14;37.28;101690.28;5020045;28;20076;-78
2022/07/19 11:25:35;;;;;;;1.33;1.23;;;;;;;33.17;36.11;101689.84;5020198;28;20042;-78
2022/07/19 11:28:01;;;;;;;2.38;1.20;;;;;;;33.19;36.63;101687.78;5020069;28;20045;-78